Other Surface Observations
Issued by NWS Great Falls, MT

Home | Current Version | Previous Version | Text Only | Print | Product List | Glossary On
Versions: 1 2 3 4 5 6 7 8 9 10 11 12 13 14 15 16 17 18 19 20 21 22 23 24 25 26 27 28 29 30 31 32 33 34 35 36 37 38 39 40 41 42 43 44 45 46 47 48 49 50
528
SXUS55 KTFX 052159
OSOTFX
AREA AWOS OBSERVATIONS
NATIONAL WEATHER SERVICE GREAT FALLS MT
0359 PM MDT THU MAY 05 2016

METAR KPO1 052200Z AUTO 28010G17KT 10SM 31/06 A2977 RMK POPLAR
METAR K1S3 052200Z AUTO 00000KT 10SM 30/04 A2982 RMK FORSYTH
METAR K38S 052200Z AUTO 05004KT 10SM 23/03 A2991 RMK DEER LODGE
METAR K3U3 052200Z AUTO 34003KT 10SM 23/02 A2990 RMK ANACONDA
METAR K6S5 052200Z AUTO 35003KT 10SM 23/04 A2984 RMK HAMILTON
METAR KS59 052200Z AUTO 32003KT 10SM 23/07 A2988 RMK LIBBY
METAR K88M 052200Z AUTO 35004KT 10SM 22/07 A2990 RMK EUREKA



USA.gov is the U.S. government's official web portal to all federal, state and local government web resources and services.